createdAt,value
2022-12-23T00:00:32.740Z,8.60
2022-12-23T00:01:32.763Z,9.00
2022-12-23T00:02:32.841Z,8.50
2022-12-23T00:03:32.902Z,9.10
2022-12-23T00:04:32.690Z,8.30
2022-12-23T00:05:37.541Z,8.80
2022-12-23T00:06:32.669Z,7.90
2022-12-23T00:07:32.671Z,8.30
2022-12-23T00:08:32.645Z,8.60
2022-12-23T00:09:32.641Z,8.50
2022-12-23T00:10:32.653Z,8.40
2022-12-23T00:11:32.612Z,9.70
2022-12-23T00:12:32.613Z,7.60
2022-12-23T00:13:32.591Z,8.40
2022-12-23T00:14:32.598Z,8.20
2022-12-23T00:15:32.567Z,9.20
2022-12-23T00:16:32.583Z,7.90
2022-12-23T00:17:32.555Z,7.90
2022-12-23T00:18:32.555Z,7.90
2022-12-23T00:19:32.549Z,8.10
2022-12-23T00:20:32.518Z,8.00
2022-12-23T00:21:32.504Z,7.60
2022-12-23T00:22:32.503Z,7.90
2022-12-23T00:23:32.479Z,7.70
2022-12-23T00:24:38.514Z,9.20
2022-12-23T00:25:32.465Z,8.60
2022-12-23T00:26:32.460Z,7.60
2022-12-23T00:27:37.368Z,8.10
2022-12-23T00:28:32.455Z,7.60
2022-12-23T00:29:32.420Z,8.10
2022-12-23T00:30:32.417Z,7.20
2022-12-23T00:31:32.485Z,7.30
2022-12-23T00:32:32.394Z,6.50
2022-12-23T00:33:32.380Z,7.40
2022-12-23T00:34:32.373Z,7.00
2022-12-23T00:35:32.353Z,7.60
2022-12-23T00:36:32.453Z,7.70
2022-12-23T00:37:32.342Z,7.40
2022-12-23T00:38:32.317Z,7.30
2022-12-23T00:39:32.314Z,7.80
2022-12-23T00:40:32.306Z,7.90
2022-12-23T00:41:32.282Z,7.60
2022-12-23T00:42:32.285Z,7.50
2022-12-23T00:43:32.273Z,7.90
2022-12-23T00:44:32.270Z,7.70
2022-12-23T00:45:32.296Z,8.10
2022-12-23T00:46:32.296Z,8.10
2022-12-23T00:47:32.232Z,8.30
2022-12-23T00:48:32.212Z,8.00
2022-12-23T00:49:32.227Z,7.20
2022-12-23T00:50:32.190Z,7.60
2022-12-23T00:51:32.168Z,8.40
2022-12-23T00:52:32.166Z,8.40
2022-12-23T00:53:32.166Z,8.20
2022-12-23T00:54:32.148Z,8.00
2022-12-23T00:55:32.131Z,7.90
2022-12-23T00:56:32.121Z,7.90
2022-12-23T00:57:32.121Z,8.80
2022-12-23T00:58:32.149Z,8.10
2022-12-23T00:59:32.101Z,8.10
2022-12-23T01:00:32.076Z,8.70
2022-12-23T01:01:32.242Z,8.70
2022-12-23T01:02:32.146Z,8.30
2022-12-23T01:03:32.122Z,8.00
2022-12-23T01:04:32.048Z,8.90
2022-12-23T01:05:32.025Z,8.10
2022-12-23T01:06:32.041Z,8.70
2022-12-23T01:07:32.003Z,8.40
2022-12-23T01:08:32.001Z,8.50
2022-12-23T01:09:31.984Z,9.70
2022-12-23T01:10:31.980Z,8.90
2022-12-23T01:11:31.947Z,8.90
2022-12-23T01:12:31.950Z,9.50
2022-12-23T01:13:31.943Z,9.10
2022-12-23T01:14:31.950Z,9.40
2022-12-23T01:15:31.919Z,9.30
2022-12-23T01:16:31.965Z,9.30
2022-12-23T01:17:31.881Z,8.80
2022-12-23T01:18:31.891Z,9.40
2022-12-23T01:19:31.876Z,8.80
2022-12-23T01:20:31.853Z,8.90
2022-12-23T01:21:31.841Z,8.70
2022-12-23T01:22:31.845Z,8.90
2022-12-23T01:23:31.824Z,9.00
2022-12-23T01:24:31.806Z,8.80
2022-12-23T01:25:31.797Z,9.70
2022-12-23T01:26:31.788Z,9.10
2022-12-23T01:27:31.781Z,9.80
2022-12-23T01:28:31.779Z,9.70
2022-12-23T01:29:31.756Z,9.20
2022-12-23T01:30:31.753Z,9.50
2022-12-23T01:31:31.832Z,9.10
2022-12-23T01:32:31.732Z,9.30
2022-12-23T01:33:31.714Z,9.60
2022-12-23T01:34:36.645Z,10.00
2022-12-23T01:35:31.696Z,9.70
2022-12-23T01:36:31.693Z,9.10
2022-12-23T01:37:31.677Z,8.80
2022-12-23T01:38:31.665Z,9.40
2022-12-23T01:39:31.645Z,9.10
2022-12-23T01:40:31.633Z,10.00
2022-12-23T01:41:31.635Z,9.70
2022-12-23T01:42:31.615Z,9.00
2022-12-23T01:43:31.612Z,9.70
2022-12-23T01:44:31.593Z,9.50
2022-12-23T01:45:31.630Z,9.60
2022-12-23T01:46:31.711Z,9.30
2022-12-23T01:47:31.565Z,9.80
2022-12-23T01:48:31.556Z,9.30
2022-12-23T01:49:31.535Z,9.30
2022-12-23T01:50:31.526Z,9.20
2022-12-23T01:51:31.619Z,9.00
2022-12-23T01:52:31.510Z,10.40
2022-12-23T01:53:31.515Z,8.90
2022-12-23T01:54:31.479Z,9.50
2022-12-23T01:55:31.479Z,9.60
2022-12-23T01:56:31.578Z,9.50
2022-12-23T01:57:31.437Z,9.60
2022-12-23T01:58:31.469Z,9.60
2022-12-23T01:59:31.427Z,9.30
2022-12-23T02:00:31.413Z,9.00
2022-12-23T02:01:31.644Z,9.60
2022-12-23T02:02:31.533Z,10.40
2022-12-23T02:03:31.456Z,8.90
2022-12-23T02:04:31.386Z,9.70
2022-12-23T02:05:31.351Z,9.50
2022-12-23T02:06:31.346Z,9.30
2022-12-23T02:07:31.334Z,9.00
2022-12-23T02:08:31.327Z,8.90
2022-12-23T02:09:31.334Z,8.80
2022-12-23T02:10:31.316Z,10.00
2022-12-23T02:11:31.284Z,9.70
2022-12-23T02:12:31.285Z,9.10
2022-12-23T02:13:31.275Z,9.20
2022-12-23T02:14:31.272Z,9.20
2022-12-23T02:15:31.256Z,9.00
2022-12-23T02:16:31.347Z,9.00
2022-12-23T02:17:31.220Z,10.00
2022-12-23T02:18:31.214Z,9.10
2022-12-23T02:19:31.211Z,10.00
2022-12-23T02:20:31.191Z,9.30
2022-12-23T02:21:31.285Z,8.90
2022-12-23T02:22:31.175Z,9.40
2022-12-23T02:23:31.153Z,9.20
2022-12-23T02:24:31.157Z,9.40
2022-12-23T02:25:31.149Z,8.70
2022-12-23T02:26:31.134Z,9.60
2022-12-23T02:27:31.113Z,8.70
2022-12-23T02:28:31.106Z,8.70
2022-12-23T02:29:31.110Z,8.70
2022-12-23T02:30:31.120Z,8.80
2022-12-23T02:31:31.117Z,8.50
2022-12-23T02:32:31.079Z,8.50
2022-12-23T02:33:31.044Z,8.40
2022-12-23T02:34:31.045Z,9.20
2022-12-23T02:35:31.028Z,8.60
2022-12-23T02:36:31.014Z,8.40
2022-12-23T02:37:30.999Z,9.00
2022-12-23T02:38:30.994Z,8.70
2022-12-23T02:39:31.015Z,8.80
2022-12-23T02:40:30.977Z,8.10
2022-12-23T02:41:30.965Z,9.50
2022-12-23T02:42:30.960Z,8.70
2022-12-23T02:43:30.937Z,8.40
2022-12-23T02:44:30.935Z,8.20
2022-12-23T02:45:30.910Z,8.50
2022-12-23T02:46:31.064Z,8.60
2022-12-23T02:47:30.893Z,8.20
2022-12-23T02:48:30.876Z,8.40
2022-12-23T02:49:30.876Z,8.00
2022-12-23T02:50:30.875Z,7.90
2022-12-23T02:51:30.842Z,7.90
2022-12-23T02:52:30.867Z,7.80
2022-12-23T02:53:30.828Z,7.80
2022-12-23T02:54:30.832Z,7.90
2022-12-23T02:55:30.801Z,8.20
2022-12-23T02:56:30.850Z,7.80
2022-12-23T02:57:30.787Z,7.90
2022-12-23T02:58:30.770Z,8.40
2022-12-23T02:59:30.770Z,7.80
2022-12-23T03:00:30.750Z,8.00
2022-12-23T03:01:30.810Z,8.30
2022-12-23T03:02:30.897Z,8.20
2022-12-23T03:03:30.745Z,8.20
2022-12-23T03:04:30.727Z,7.80
2022-12-23T03:05:30.692Z,8.10
2022-12-23T03:06:30.719Z,7.80
2022-12-23T03:07:30.666Z,8.20
2022-12-23T03:08:30.661Z,7.50
2022-12-23T03:09:30.653Z,8.00
2022-12-23T03:10:30.639Z,7.70
2022-12-23T03:11:30.623Z,7.70
2022-12-23T03:12:30.615Z,8.10
2022-12-23T03:13:30.601Z,7.70
2022-12-23T03:14:30.610Z,8.00
2022-12-23T03:15:30.626Z,7.50
2022-12-23T03:16:30.619Z,8.10
2022-12-23T03:17:30.565Z,7.80
2022-12-23T03:18:30.553Z,7.70
2022-12-23T03:19:30.542Z,7.90
2022-12-23T03:20:30.533Z,7.30
2022-12-23T03:21:30.516Z,7.50
2022-12-23T03:22:30.510Z,7.10
2022-12-23T03:23:30.495Z,6.70
2022-12-23T03:24:30.520Z,7.10
2022-12-23T03:25:30.482Z,6.60
2022-12-23T03:26:30.467Z,7.40
2022-12-23T03:27:30.452Z,7.60
2022-12-23T03:28:30.434Z,7.20
2022-12-23T03:29:30.434Z,6.80
2022-12-23T03:30:30.424Z,7.10
2022-12-23T03:31:30.534Z,7.30
2022-12-23T03:32:30.410Z,7.40
2022-12-23T03:33:30.383Z,7.50
2022-12-23T03:34:30.372Z,7.50
2022-12-23T03:35:30.379Z,7.60
2022-12-23T03:36:30.348Z,7.90
2022-12-23T03:37:30.343Z,7.80
2022-12-23T03:38:30.340Z,7.80
2022-12-23T03:39:30.336Z,7.90
2022-12-23T03:40:30.321Z,8.40
2022-12-23T03:41:30.305Z,7.80
2022-12-23T03:42:30.333Z,7.90
2022-12-23T03:43:30.287Z,8.10
2022-12-23T03:44:30.263Z,8.20
2022-12-23T03:45:39.862Z,8.30
2022-12-23T03:46:30.321Z,8.60
2022-12-23T03:47:30.241Z,8.80
2022-12-23T03:48:30.218Z,8.70
2022-12-23T03:49:30.205Z,8.60
2022-12-23T03:50:30.209Z,8.50
2022-12-23T03:51:30.209Z,8.80
2022-12-23T03:52:30.167Z,9.00
2022-12-23T03:53:30.173Z,8.80
2022-12-23T03:54:30.148Z,8.90
2022-12-23T03:55:30.156Z,9.00
2022-12-23T03:56:30.136Z,9.50
2022-12-23T03:57:30.130Z,9.60
2022-12-23T03:58:30.110Z,9.50
2022-12-23T03:59:30.100Z,9.50
2022-12-23T04:00:30.094Z,9.70
2022-12-23T04:01:30.193Z,9.30
2022-12-23T04:02:30.176Z,9.20
2022-12-23T04:03:30.085Z,9.60
2022-12-23T04:04:30.036Z,9.10
2022-12-23T04:05:30.047Z,9.60
2022-12-23T04:06:30.013Z,9.90
2022-12-23T04:07:30.009Z,9.70
2022-12-23T04:08:30.017Z,9.40
2022-12-23T04:09:29.995Z,9.40
2022-12-23T04:10:29.978Z,9.30
2022-12-23T04:11:29.970Z,9.10
2022-12-23T04:12:29.946Z,9.60
2022-12-23T04:13:29.948Z,10.00
2022-12-23T04:14:29.926Z,9.80
2022-12-23T04:15:29.929Z,10.00
2022-12-23T04:16:29.933Z,9.80
2022-12-23T04:17:29.896Z,9.80
2022-12-23T04:18:29.880Z,9.50
2022-12-23T04:19:29.892Z,9.90
2022-12-23T04:20:29.867Z,10.00
2022-12-23T04:21:29.859Z,9.90
2022-12-23T04:22:29.844Z,9.70
2022-12-23T04:23:29.833Z,9.80
2022-12-23T04:24:29.838Z,9.70
2022-12-23T04:25:29.815Z,9.80
2022-12-23T04:26:29.802Z,10.10
2022-12-23T04:27:29.788Z,10.00
2022-12-23T04:28:29.770Z,10.10
2022-12-23T04:29:29.759Z,10.60
2022-12-23T04:30:34.349Z,9.90
2022-12-23T04:31:29.801Z,9.90
2022-12-23T04:32:29.729Z,10.10
2022-12-23T04:33:29.719Z,9.60
2022-12-23T04:34:29.717Z,9.80
2022-12-23T04:35:29.704Z,9.60
2022-12-23T04:36:29.701Z,9.80
2022-12-23T04:37:29.686Z,10.10
2022-12-23T04:38:29.667Z,9.80
2022-12-23T04:39:29.653Z,9.90
2022-12-23T04:40:29.657Z,9.70
2022-12-23T04:41:29.629Z,9.30
2022-12-23T04:42:29.621Z,9.50
2022-12-23T04:43:29.621Z,9.20
2022-12-23T04:44:29.629Z,8.70
2022-12-23T04:45:29.597Z,9.60
2022-12-23T04:46:29.663Z,9.30
2022-12-23T04:47:29.559Z,9.60
2022-12-23T04:48:29.563Z,9.80
2022-12-23T04:49:29.542Z,9.90
2022-12-23T04:50:29.543Z,9.50
2022-12-23T04:51:29.532Z,9.60
2022-12-23T04:52:29.511Z,9.50
2022-12-23T04:53:29.505Z,10.10
2022-12-23T04:54:29.489Z,9.40
2022-12-23T04:55:29.501Z,9.90
2022-12-23T04:56:29.464Z,9.80
2022-12-23T04:57:29.457Z,9.80
2022-12-23T04:58:29.444Z,9.80
2022-12-23T04:59:29.430Z,9.80
2022-12-23T05:00:32.720Z,9.50
2022-12-23T05:01:29.570Z,9.00
2022-12-23T05:02:29.531Z,9.60
2022-12-23T05:03:29.473Z,9.80
2022-12-23T05:04:29.439Z,9.60
2022-12-23T05:05:29.362Z,10.00
2022-12-23T05:06:29.371Z,10.00
2022-12-23T05:07:29.337Z,9.80
2022-12-23T05:08:29.345Z,10.10
2022-12-23T05:09:29.321Z,10.40
2022-12-23T05:10:29.311Z,9.60
2022-12-23T05:11:29.306Z,10.10
2022-12-23T05:12:29.299Z,10.40
2022-12-23T05:13:29.273Z,9.80
2022-12-23T05:14:29.270Z,9.90
2022-12-23T05:15:29.283Z,9.90
2022-12-23T05:16:29.289Z,10.00
2022-12-23T05:17:29.227Z,10.10
2022-12-23T05:18:29.237Z,10.00
2022-12-23T05:19:29.208Z,9.90
2022-12-23T05:20:29.199Z,9.80
2022-12-23T05:21:29.196Z,9.80
2022-12-23T05:22:29.177Z,9.80
2022-12-23T05:23:29.165Z,10.20
2022-12-23T05:24:29.172Z,10.50
2022-12-23T05:25:29.140Z,10.80
2022-12-23T05:26:29.143Z,10.60
2022-12-23T05:27:29.127Z,10.90
2022-12-23T05:28:29.117Z,10.10
2022-12-23T05:29:29.100Z,11.00
2022-12-23T05:30:29.091Z,11.30
2022-12-23T05:31:29.105Z,10.90
2022-12-23T05:32:29.066Z,10.50
2022-12-23T05:33:29.080Z,11.70
2022-12-23T05:34:29.043Z,11.40
2022-12-23T05:35:29.026Z,10.10
2022-12-23T05:36:29.034Z,10.40
2022-12-23T05:37:29.010Z,10.70
2022-12-23T05:38:29.013Z,10.70
2022-12-23T05:39:28.987Z,11.00
2022-12-23T05:40:30.388Z,11.60
2022-12-23T05:41:28.984Z,11.10
2022-12-23T05:42:28.969Z,10.00
2022-12-23T05:43:28.945Z,11.00
2022-12-23T05:44:28.932Z,10.70
2022-12-23T05:45:28.973Z,10.90
2022-12-23T05:46:28.983Z,10.80
2022-12-23T05:47:28.916Z,10.50
2022-12-23T05:48:28.896Z,11.10
2022-12-23T05:49:28.879Z,10.90
2022-12-23T05:50:28.871Z,10.70
2022-12-23T05:51:28.891Z,10.80
2022-12-23T05:52:28.852Z,11.30
2022-12-23T05:53:28.836Z,11.00
2022-12-23T05:54:28.850Z,11.00
2022-12-23T05:55:28.807Z,10.30
2022-12-23T05:56:28.822Z,10.10
2022-12-23T05:57:28.827Z,10.50
2022-12-23T05:58:28.789Z,10.40
2022-12-23T05:59:31.250Z,10.30
2022-12-23T06:00:28.776Z,10.70
2022-12-23T06:01:28.819Z,10.40
2022-12-23T06:02:28.866Z,10.30
2022-12-23T06:03:28.915Z,10.10
2022-12-23T06:04:28.764Z,9.30
2022-12-23T06:05:28.699Z,9.50
2022-12-23T06:06:28.735Z,10.30
2022-12-23T06:07:28.678Z,9.40
2022-12-23T06:08:28.674Z,9.20
2022-12-23T06:09:28.656Z,10.40
2022-12-23T06:10:28.647Z,9.80
2022-12-23T06:11:29.582Z,9.90
2022-12-23T06:12:28.685Z,10.10
2022-12-23T06:13:28.607Z,9.20
2022-12-23T06:14:29.527Z,9.50
2022-12-23T06:15:28.603Z,9.20
2022-12-23T06:16:28.611Z,9.90
2022-12-23T06:17:28.576Z,9.60
2022-12-23T06:18:28.586Z,9.70
2022-12-23T06:19:28.545Z,9.50
2022-12-23T06:20:28.545Z,9.60
2022-12-23T06:21:28.534Z,9.60
2022-12-23T06:22:28.521Z,9.40
2022-12-23T06:23:28.500Z,9.70
2022-12-23T06:24:28.503Z,9.70
2022-12-23T06:25:28.502Z,9.70
2022-12-23T06:26:28.479Z,10.10
2022-12-23T06:27:28.470Z,9.60
2022-12-23T06:28:28.448Z,9.10
2022-12-23T06:29:28.436Z,9.80
2022-12-23T06:30:28.430Z,9.70
2022-12-23T06:31:28.517Z,8.90
2022-12-23T06:32:31.602Z,10.50
2022-12-23T06:33:28.404Z,10.40
2022-12-23T06:34:28.384Z,10.20
2022-12-23T06:35:28.369Z,10.20
2022-12-23T06:36:34.665Z,10.10
2022-12-23T06:37:28.473Z,10.50
2022-12-23T06:38:28.339Z,10.50
2022-12-23T06:39:28.335Z,9.80
2022-12-23T06:40:28.316Z,10.50
2022-12-23T06:41:28.305Z,10.20
2022-12-23T06:42:28.298Z,10.20
2022-12-23T06:43:28.280Z,11.10
2022-12-23T06:44:28.282Z,10.40
2022-12-23T06:45:28.259Z,11.30
2022-12-23T06:46:28.369Z,11.10
2022-12-23T06:47:28.339Z,10.80
2022-12-23T06:48:28.275Z,10.50
2022-12-23T06:49:28.305Z,10.60
2022-12-23T06:50:28.304Z,11.20
2022-12-23T06:51:28.198Z,11.00
2022-12-23T06:52:28.196Z,10.90
2022-12-23T06:53:28.172Z,11.50
2022-12-23T06:54:28.248Z,11.20
2022-12-23T06:55:28.201Z,10.90
2022-12-23T06:56:28.142Z,10.30
2022-12-23T06:57:28.138Z,11.00
2022-12-23T06:58:28.113Z,12.10
2022-12-23T06:59:28.103Z,11.30
2022-12-23T07:00:28.085Z,11.00
2022-12-23T07:01:28.275Z,11.70
2022-12-23T07:02:28.214Z,11.00
2022-12-23T07:03:28.251Z,11.10
2022-12-23T07:04:28.043Z,11.40
2022-12-23T07:05:34.902Z,11.70
2022-12-23T07:06:28.031Z,12.20
2022-12-23T07:07:28.023Z,10.80
2022-12-23T07:08:28.008Z,11.80
2022-12-23T07:09:28.006Z,11.20
2022-12-23T07:10:27.978Z,11.50
2022-12-23T07:11:27.975Z,10.60
2022-12-23T07:12:27.967Z,10.20
2022-12-23T07:13:27.954Z,10.20
2022-12-23T07:14:27.931Z,10.10
2022-12-23T07:15:27.932Z,9.80
2022-12-23T07:16:27.932Z,9.30
2022-12-23T07:17:27.916Z,9.70
2022-12-23T07:18:27.890Z,9.10
2022-12-23T07:19:27.880Z,9.40
2022-12-23T07:20:28.014Z,9.40
2022-12-23T07:21:29.795Z,9.80
2022-12-23T07:22:27.867Z,9.30
2022-12-23T07:23:27.840Z,9.20
2022-12-23T07:24:27.824Z,8.90
2022-12-23T07:25:27.815Z,9.10
2022-12-23T07:26:27.801Z,9.50
2022-12-23T07:27:27.818Z,9.20
2022-12-23T07:28:27.780Z,9.50
2022-12-23T07:29:27.765Z,9.20
2022-12-23T07:30:27.832Z,9.10
2022-12-23T07:31:27.777Z,9.10
2022-12-23T07:32:27.732Z,9.20
2022-12-23T07:33:27.756Z,9.70
2022-12-23T07:34:27.744Z,9.10
2022-12-23T07:35:27.702Z,9.40
2022-12-23T07:36:27.691Z,9.10
2022-12-23T07:37:27.713Z,9.20
2022-12-23T07:38:27.691Z,9.60
2022-12-23T07:39:27.666Z,10.10
2022-12-23T07:40:27.734Z,9.30
2022-12-23T07:41:27.639Z,8.80
2022-12-23T07:42:45.145Z,9.00
2022-12-23T07:43:27.628Z,9.40
2022-12-23T07:44:27.600Z,9.60
2022-12-23T07:45:27.699Z,9.40
2022-12-23T07:46:27.677Z,9.60
2022-12-23T07:47:27.580Z,9.60
2022-12-23T07:48:27.621Z,9.30
2022-12-23T07:49:27.561Z,9.50
2022-12-23T07:50:27.683Z,9.10
2022-12-23T07:51:27.525Z,9.40
2022-12-23T07:52:27.520Z,9.70
2022-12-23T07:53:27.517Z,10.30
2022-12-23T07:54:27.486Z,10.50
2022-12-23T07:55:27.484Z,10.70
2022-12-23T07:56:27.467Z,10.80
2022-12-23T07:57:27.467Z,10.50
2022-12-23T07:58:27.477Z,11.10
2022-12-23T07:59:27.465Z,10.50
2022-12-23T08:00:27.421Z,10.50
2022-12-23T08:01:27.504Z,10.20
2022-12-23T08:02:27.588Z,10.50
2022-12-23T08:03:27.471Z,11.30
2022-12-23T08:04:27.430Z,10.60
2022-12-23T08:05:27.436Z,11.20
2022-12-23T08:06:27.357Z,10.90
2022-12-23T08:07:27.349Z,10.70
2022-12-23T08:08:27.345Z,10.90
2022-12-23T08:09:27.329Z,11.30
2022-12-23T08:10:27.312Z,11.60
2022-12-23T08:11:27.308Z,10.60
2022-12-23T08:12:27.297Z,11.60
2022-12-23T08:13:27.301Z,12.10
2022-12-23T08:14:27.266Z,11.80
2022-12-23T08:15:27.264Z,12.30
2022-12-23T08:16:27.326Z,11.60
2022-12-23T08:17:27.241Z,11.30
2022-12-23T08:18:27.235Z,12.30
2022-12-23T08:19:27.214Z,12.50
2022-12-23T08:20:27.200Z,11.30
2022-12-23T08:21:27.195Z,14.00
2022-12-23T08:22:27.179Z,12.50
2022-12-23T08:23:27.183Z,12.30
2022-12-23T08:24:27.158Z,16.80
2022-12-23T08:25:27.153Z,13.00
2022-12-23T08:26:27.133Z,14.10
2022-12-23T08:27:27.130Z,13.60
2022-12-23T08:28:27.131Z,15.50
2022-12-23T08:29:29.967Z,17.50
2022-12-23T08:30:27.108Z,13.70
2022-12-23T08:31:27.153Z,13.60
2022-12-23T08:32:27.075Z,14.50
2022-12-23T08:33:27.066Z,14.20
2022-12-23T08:34:27.057Z,13.80
2022-12-23T08:35:27.034Z,14.60
2022-12-23T08:36:27.033Z,15.80
2022-12-23T08:37:27.010Z,15.80
2022-12-23T08:38:27.010Z,14.40
2022-12-23T08:39:26.997Z,14.00
2022-12-23T08:40:26.982Z,14.30
2022-12-23T08:41:26.994Z,15.60
2022-12-23T08:42:26.965Z,14.10
2022-12-23T08:43:33.617Z,13.80
2022-12-23T08:44:26.957Z,14.30
2022-12-23T08:45:26.921Z,13.50
2022-12-23T08:46:26.998Z,14.60
2022-12-23T08:47:26.900Z,14.40
2022-12-23T08:48:26.893Z,16.80
2022-12-23T08:49:26.908Z,14.50
2022-12-23T08:50:26.878Z,14.20
2022-12-23T08:51:26.861Z,14.10
2022-12-23T08:52:26.850Z,14.00
2022-12-23T08:53:26.844Z,13.20
2022-12-23T08:54:26.845Z,13.90
2022-12-23T08:55:26.812Z,14.90
2022-12-23T08:56:26.810Z,14.60
2022-12-23T08:57:26.792Z,14.70
2022-12-23T08:58:26.794Z,14.90
2022-12-23T08:59:26.774Z,14.00
2022-12-23T09:00:26.775Z,13.70
2022-12-23T09:01:26.997Z,14.90
2022-12-23T09:02:26.960Z,14.40
2022-12-23T09:03:26.887Z,14.70
2022-12-23T09:04:26.742Z,15.10
2022-12-23T09:05:26.701Z,15.60
2022-12-23T09:06:29.587Z,15.40
2022-12-23T09:07:26.682Z,13.90
2022-12-23T09:08:26.670Z,13.50
2022-12-23T09:09:26.667Z,12.80
2022-12-23T09:10:26.680Z,13.60
2022-12-23T09:11:26.636Z,14.60
2022-12-23T09:12:26.635Z,14.40
2022-12-23T09:13:34.846Z,13.50
2022-12-23T09:14:26.621Z,13.60
2022-12-23T09:15:26.590Z,13.90
2022-12-23T09:16:26.640Z,13.40
2022-12-23T09:17:26.620Z,12.90
2022-12-23T09:18:26.577Z,13.00
2022-12-23T09:19:26.565Z,13.30
2022-12-23T09:20:26.543Z,13.50
2022-12-23T09:21:26.531Z,13.20
2022-12-23T09:22:26.528Z,13.50
2022-12-23T09:23:26.510Z,12.50
2022-12-23T09:24:26.519Z,12.90
2022-12-23T09:25:26.484Z,13.80
2022-12-23T09:26:26.474Z,13.40
2022-12-23T09:27:26.478Z,13.30
2022-12-23T09:28:26.448Z,13.40
2022-12-23T09:29:26.449Z,13.10
2022-12-23T09:30:26.434Z,14.20
2022-12-23T09:31:32.286Z,13.20
2022-12-23T09:32:26.415Z,13.80
2022-12-23T09:33:26.392Z,14.30
2022-12-23T09:34:26.392Z,13.70
2022-12-23T09:35:26.368Z,13.70
2022-12-23T09:36:26.363Z,14.20
2022-12-23T09:37:26.356Z,13.90
2022-12-23T09:38:26.336Z,13.30
2022-12-23T09:39:26.340Z,13.10
2022-12-23T09:40:26.318Z,14.00
2022-12-23T09:41:26.308Z,13.80
2022-12-23T09:42:26.294Z,14.10
2022-12-23T09:43:26.283Z,13.20
2022-12-23T09:44:26.300Z,13.90
2022-12-23T09:45:26.262Z,14.30
2022-12-23T09:46:26.279Z,14.00
2022-12-23T09:47:26.245Z,13.60
2022-12-23T09:48:26.232Z,13.60
2022-12-23T09:49:26.249Z,13.50
2022-12-23T09:50:26.218Z,13.70
2022-12-23T09:51:26.208Z,14.30
2022-12-23T09:52:26.188Z,14.40
2022-12-23T09:53:26.172Z,14.20
2022-12-23T09:54:26.190Z,13.60
2022-12-23T09:55:26.155Z,15.00
2022-12-23T09:56:26.136Z,14.50
2022-12-23T09:57:26.128Z,14.20
2022-12-23T09:58:26.123Z,14.60
2022-12-23T09:59:26.118Z,14.40
2022-12-23T10:00:26.098Z,14.60
2022-12-23T10:01:26.318Z,14.60
2022-12-23T10:02:26.370Z,14.00
2022-12-23T10:03:26.283Z,14.50
2022-12-23T10:04:26.118Z,14.30
2022-12-23T10:05:26.048Z,15.10
2022-12-23T10:06:26.028Z,14.30
2022-12-23T10:07:26.023Z,13.70
2022-12-23T10:08:26.017Z,14.10
2022-12-23T10:09:26.015Z,14.10
2022-12-23T10:10:25.983Z,14.90
2022-12-23T10:11:25.992Z,14.00
2022-12-23T10:12:28.873Z,12.90
2022-12-23T10:13:25.983Z,13.90
2022-12-23T10:14:25.938Z,14.60
2022-12-23T10:15:25.942Z,14.20
2022-12-23T10:16:26.014Z,14.20
2022-12-23T10:17:25.909Z,14.30
2022-12-23T10:18:25.930Z,13.90
2022-12-23T10:19:25.891Z,14.00
2022-12-23T10:20:25.881Z,12.60
2022-12-23T10:21:25.862Z,13.70
2022-12-23T10:22:25.851Z,13.30
2022-12-23T10:23:25.842Z,14.40
2022-12-23T10:24:25.832Z,14.30
2022-12-23T10:25:25.829Z,14.40
2022-12-23T10:26:25.813Z,14.10
2022-12-23T10:27:25.803Z,14.20
2022-12-23T10:28:29.938Z,14.60
2022-12-23T10:29:25.779Z,14.80
2022-12-23T10:31:40.274Z,14.20
2022-12-23T10:32:25.872Z,14.10
2022-12-23T10:33:25.731Z,14.00
2022-12-23T10:34:25.726Z,13.60
2022-12-23T10:35:25.718Z,13.90
2022-12-23T10:36:25.804Z,13.00
2022-12-23T10:37:25.686Z,14.10
2022-12-23T10:38:25.667Z,13.50
2022-12-23T10:39:25.665Z,14.30
2022-12-23T10:40:25.661Z,14.70
2022-12-23T10:41:25.643Z,14.20
2022-12-23T10:42:25.631Z,14.30
2022-12-23T10:43:25.629Z,14.60
2022-12-23T10:44:25.607Z,13.80
2022-12-23T10:45:25.612Z,14.50
2022-12-23T10:46:25.582Z,14.80
2022-12-23T10:47:25.583Z,13.80
2022-12-23T10:48:25.557Z,14.40
2022-12-23T10:49:25.555Z,15.10
2022-12-23T10:50:25.549Z,14.30
2022-12-23T10:51:25.531Z,13.60
2022-12-23T10:52:25.518Z,13.80
2022-12-23T10:53:25.510Z,14.30
2022-12-23T10:54:25.503Z,14.40
2022-12-23T10:55:31.382Z,14.00
2022-12-23T10:56:25.481Z,14.20
2022-12-23T10:57:25.464Z,13.80
2022-12-23T10:58:25.448Z,14.30
2022-12-23T10:59:25.444Z,14.10
2022-12-23T11:00:25.530Z,13.60
2022-12-23T11:01:27.475Z,14.10
2022-12-23T11:02:25.612Z,13.60
2022-12-23T11:03:25.510Z,14.20
2022-12-23T11:04:25.384Z,14.20
2022-12-23T11:05:25.384Z,14.20
2022-12-23T11:06:25.364Z,15.00
2022-12-23T11:08:25.347Z,14.10
2022-12-23T11:09:25.340Z,14.70
2022-12-23T11:10:25.325Z,13.50
2022-12-23T11:11:25.313Z,14.40
2022-12-23T11:12:25.296Z,13.90
2022-12-23T11:13:25.293Z,15.00
2022-12-23T11:14:25.272Z,15.10
2022-12-23T11:15:25.287Z,14.30
2022-12-23T11:16:25.327Z,14.40
2022-12-23T11:17:25.303Z,14.70
2022-12-23T11:18:25.232Z,14.70
2022-12-23T11:19:25.224Z,14.80
2022-12-23T11:20:25.214Z,14.50
2022-12-23T11:21:25.198Z,15.30
2022-12-23T11:22:25.205Z,15.40
2022-12-23T11:23:25.179Z,15.30
2022-12-23T11:24:25.162Z,14.80
2022-12-23T11:25:25.167Z,14.90
2022-12-23T11:26:25.151Z,14.60
2022-12-23T11:27:25.132Z,14.00
2022-12-23T11:28:25.116Z,14.20
2022-12-23T11:29:25.124Z,15.00
2022-12-23T11:30:25.104Z,14.40
2022-12-23T11:31:25.162Z,14.60
2022-12-23T11:32:25.077Z,14.60
2022-12-23T11:33:25.075Z,14.10
2022-12-23T11:34:25.050Z,13.90
2022-12-23T11:35:25.095Z,15.70
2022-12-23T11:36:25.038Z,13.90
2022-12-23T11:37:25.024Z,16.00
2022-12-23T11:38:25.005Z,15.10
2022-12-23T11:39:25.005Z,15.60
2022-12-23T11:40:24.988Z,14.80
2022-12-23T11:41:24.990Z,15.40
2022-12-23T11:42:24.960Z,14.50
2022-12-23T11:43:24.956Z,14.60
2022-12-23T11:44:24.942Z,15.40
2022-12-23T11:45:24.991Z,15.00
2022-12-23T11:46:25.056Z,15.40
2022-12-23T11:47:24.907Z,15.30
2022-12-23T11:48:24.892Z,15.10
2022-12-23T11:49:24.887Z,15.90
2022-12-23T11:50:24.875Z,15.90
2022-12-23T11:51:24.907Z,16.20
2022-12-23T11:52:24.857Z,15.80
2022-12-23T11:53:24.845Z,15.40
2022-12-23T11:54:24.830Z,15.40
2022-12-23T11:55:24.833Z,15.70
2022-12-23T11:56:24.847Z,15.80
2022-12-23T11:57:24.799Z,15.60
2022-12-23T11:58:24.785Z,16.30
2022-12-23T11:59:24.780Z,17.00
2022-12-23T12:00:24.763Z,15.90
2022-12-23T12:01:24.764Z,15.20
2022-12-23T12:02:24.771Z,15.90
2022-12-23T12:03:24.776Z,15.60
2022-12-23T12:04:24.719Z,15.50
2022-12-23T12:05:24.713Z,16.50
2022-12-23T12:06:24.708Z,16.00
2022-12-23T12:07:24.689Z,15.60
2022-12-23T12:08:24.677Z,15.20
2022-12-23T12:09:24.692Z,15.30
2022-12-23T12:10:24.652Z,16.40
2022-12-23T12:11:24.655Z,16.40
2022-12-23T12:12:24.629Z,15.80
2022-12-23T12:13:24.625Z,16.00
2022-12-23T12:14:24.614Z,16.40
2022-12-23T12:15:24.619Z,15.60
2022-12-23T12:16:24.627Z,14.50
2022-12-23T12:17:24.592Z,15.70
2022-12-23T12:18:24.579Z,14.80
2022-12-23T12:19:24.595Z,15.70
2022-12-23T12:20:24.544Z,15.50
2022-12-23T12:21:24.553Z,15.70
2022-12-23T12:22:24.516Z,16.10
2022-12-23T12:23:24.512Z,15.90
2022-12-23T12:24:24.500Z,15.40
2022-12-23T12:25:24.490Z,16.70
2022-12-23T12:26:24.486Z,17.00
2022-12-23T12:27:24.466Z,17.40
2022-12-23T12:28:24.461Z,16.30
2022-12-23T12:29:24.444Z,16.90
2022-12-23T12:30:24.460Z,16.00
2022-12-23T12:31:24.508Z,17.20
2022-12-23T12:32:24.417Z,18.20
2022-12-23T12:33:24.406Z,16.90
2022-12-23T12:34:24.384Z,17.60
2022-12-23T12:35:24.381Z,18.10
2022-12-23T12:36:30.462Z,18.80
2022-12-23T12:37:24.355Z,19.70
2022-12-23T12:38:24.340Z,21.30
2022-12-23T12:39:24.334Z,25.00
2022-12-23T12:40:24.320Z,22.30
2022-12-23T12:41:24.319Z,20.80
2022-12-23T12:42:24.309Z,20.40
2022-12-23T12:43:24.367Z,22.30
2022-12-23T12:44:24.280Z,19.10
2022-12-23T12:45:24.271Z,20.70
2022-12-23T12:46:24.315Z,19.10
2022-12-23T12:48:24.266Z,19.10
2022-12-23T12:49:24.222Z,18.80
2022-12-23T12:50:24.227Z,18.80
2022-12-23T12:51:24.206Z,19.10
2022-12-23T12:52:24.251Z,19.20
2022-12-23T12:53:24.180Z,17.40
2022-12-23T12:54:24.170Z,17.90
2022-12-23T12:55:24.150Z,19.90
2022-12-23T12:56:24.156Z,20.60
2022-12-23T12:57:24.135Z,19.00
2022-12-23T12:58:24.134Z,18.90
2022-12-23T12:59:24.106Z,19.80
2022-12-23T13:00:24.099Z,20.80
2022-12-23T13:01:24.203Z,20.50
2022-12-23T13:02:24.124Z,20.20
2022-12-23T13:03:24.099Z,21.00
2022-12-23T13:04:24.062Z,21.00
2022-12-23T13:05:24.040Z,17.70
2022-12-23T13:06:24.062Z,17.50
2022-12-23T13:07:24.020Z,17.50